Time;durP1;ratioP1;P1;durP2;ratioP2;P2;SDS_P1;SDS_P2;PMS_P1;PMS_P2;Temp;Humidity;BMP_temperature;BMP_pressure;BME280_temperature;BME280_humidity;BME280_pressure;Samples;Min_cycle;Max_cycle;Signal;HPM_P1;HPM_P2
2022/09/18 00:01:20;;;;;;;;;;;11.60;99.90;;;;;;5110461;28;19920;-75
2022/09/18 00:03:46;;;;;;;;;;;11.60;99.90;;;;;;5066520;28;20416;-76
2022/09/18 00:06:13;;;;;;;;;;;11.50;99.90;;;;;;5100302;28;19954;-77
2022/09/18 00:08:39;;;;;;;;;;;11.50;99.90;;;;;;5074641;28;19977;-77
2022/09/18 00:11:06;;;;;;;;;;;11.40;99.90;;;;;;5090096;28;19908;-75
2022/09/18 00:13:32;;;;;;;;;;;11.40;99.90;;;;;;5110219;28;19915;-75
2022/09/18 00:15:58;;;;;;;;;;;11.40;99.90;;;;;;5109151;28;19923;-79
2022/09/18 00:18:23;;;;;;;;;;;11.40;99.90;;;;;;5101865;28;19912;-74
2022/09/18 00:20:49;;;;;;;;;;;11.40;99.90;;;;;;5116245;28;19919;-76
2022/09/18 00:23:14;;;;;;;;;;;11.50;99.90;;;;;;5113552;28;20187;-75
2022/09/18 00:25:40;;;;;;;;;;;11.50;99.90;;;;;;5091706;28;19912;-75
2022/09/18 00:28:06;;;;;;;;;;;11.60;99.90;;;;;;5098253;28;19923;-74
2022/09/18 00:30:31;;;;;;;;;;;11.60;99.90;;;;;;5096468;28;19912;-74
2022/09/18 00:32:57;;;;;;;;;;;11.60;99.90;;;;;;5101605;28;19915;-76
2022/09/18 00:35:22;;;;;;;;;;;11.60;99.90;;;;;;5099292;28;20230;-75
2022/09/18 00:37:48;;;;;;;;;;;11.70;99.90;;;;;;5111525;28;19911;-74
2022/09/18 00:40:15;;;;;;;;;;;11.70;99.90;;;;;;5112802;28;19912;-74
2022/09/18 00:42:41;;;;;;;;;;;11.70;99.90;;;;;;5108897;28;19908;-75
2022/09/18 00:45:09;;;;;;;;;;;11.70;99.90;;;;;;5090328;28;19911;-74
2022/09/18 00:47:40;;;;;;;;;;;11.70;99.90;;;;;;5116743;28;19912;-75
2022/09/18 00:50:09;;;;;;;;;;;11.80;99.90;;;;;;5097040;28;19965;-74
2022/09/18 00:52:39;;;;;;;;;;;11.80;99.90;;;;;;5096959;28;19908;-72
2022/09/18 00:55:07;;;;;;;;;;;11.80;99.90;;;;;;5097350;28;19912;-73
2022/09/18 00:57:34;;;;;;;;;;;11.70;99.90;;;;;;5077698;28;19948;-74
2022/09/18 01:00:00;;;;;;;;;;;11.70;99.90;;;;;;5095568;27;19915;-77
2022/09/18 01:02:26;;;;;;;;;;;11.70;99.90;;;;;;5077685;28;19919;-76
2022/09/18 01:04:51;;;;;;;;;;;11.70;99.90;;;;;;5094927;28;19916;-75
2022/09/18 01:07:20;;;;;;;;;;;11.70;99.90;;;;;;5096480;28;19923;-75
2022/09/18 01:10:04;;;;;;;;;;;11.70;99.90;;;;;;5095600;28;19919;-75
2022/09/18 01:12:39;;;;;;;;;;;11.70;99.90;;;;;;5078662;28;20274;-74
2022/09/18 01:15:16;;;;;;;;;;;11.80;99.90;;;;;;5095176;28;19908;-75
2022/09/18 01:17:45;;;;;;;;;;;11.80;99.90;;;;;;5095432;28;19912;-78
2022/09/18 01:20:16;;;;;;;;;;;11.80;99.90;;;;;;5095416;28;20003;-77
2022/09/18 01:22:50;;;;;;;;;;;11.70;99.90;;;;;;5077020;28;20279;-76
2022/09/18 01:25:28;;;;;;;;;;;11.70;99.90;;;;;;5076986;28;19912;-75
2022/09/18 01:27:59;;;;;;;;;;;11.70;99.90;;;;;;5095097;28;19908;-75
2022/09/18 01:30:25;;;;;;;;;;;11.70;99.90;;;;;;5097813;28;19911;-77
2022/09/18 01:33:01;;;;;;;;;;;11.80;99.90;;;;;;5086813;28;19944;-75
2022/09/18 01:35:26;;;;;;;;;;;11.90;99.90;;;;;;5096041;28;19912;-76
2022/09/18 01:37:52;;;;;;;;;;;11.90;99.90;;;;;;5109665;28;19912;-79
2022/09/18 01:40:23;;;;;;;;;;;11.90;99.90;;;;;;5115885;28;20025;-76
2022/09/18 01:42:50;;;;;;;;;;;11.90;99.90;;;;;;5084704;28;19923;-72
2022/09/18 01:45:18;;;;;;;;;;;11.90;99.90;;;;;;5101500;28;19923;-74
2022/09/18 01:47:47;;;;;;;;;;;11.80;99.90;;;;;;5099666;28;20303;-78
2022/09/18 01:50:13;;;;;;;;;;;11.80;99.90;;;;;;5115391;28;19912;-75
2022/09/18 01:52:43;;;;;;;;;;;11.90;99.90;;;;;;5091036;28;19915;-75
2022/09/18 01:55:11;;;;;;;;;;;11.80;99.90;;;;;;5115236;28;19982;-75
2022/09/18 01:57:43;;;;;;;;;;;11.80;99.90;;;;;;5081363;28;19925;-77
2022/09/18 02:00:10;;;;;;;;;;;11.80;99.90;;;;;;5099342;28;19947;-74
2022/09/18 02:02:42;;;;;;;;;;;11.80;99.90;;;;;;5114182;28;19912;-74
2022/09/18 02:05:10;;;;;;;;;;;11.80;99.90;;;;;;5095946;28;19919;-74
2022/09/18 02:07:45;;;;;;;;;;;11.70;99.90;;;;;;5086908;28;20538;-75
2022/09/18 02:10:10;;;;;;;;;;;11.70;99.90;;;;;;5113275;28;19964;-74
2022/09/18 02:12:38;;;;;;;;;;;11.70;99.90;;;;;;5115213;28;19911;-74
2022/09/18 02:15:08;;;;;;;;;;;11.70;99.90;;;;;;5114443;28;19909;-74
2022/09/18 02:17:39;;;;;;;;;;;11.70;99.90;;;;;;5090679;28;19960;-77
2022/09/18 02:20:09;;;;;;;;;;;11.70;99.90;;;;;;5108175;28;20230;-77
2022/09/18 02:22:36;;;;;;;;;;;11.70;99.90;;;;;;5113794;28;19918;-75
2022/09/18 02:25:04;;;;;;;;;;;11.70;99.90;;;;;;5114652;28;20321;-74
2022/09/18 02:27:31;;;;;;;;;;;11.70;99.90;;;;;;5087473;28;19908;-76
2022/09/18 02:29:59;;;;;;;;;;;11.60;99.90;;;;;;5094275;28;20318;-75
2022/09/18 02:32:24;;;;;;;;;;;11.60;99.90;;;;;;5109913;28;19915;-76
2022/09/18 02:34:50;;;;;;;;;;;11.60;99.90;;;;;;5104888;28;19908;-77
2022/09/18 02:37:21;;;;;;;;;;;11.60;99.90;;;;;;5097092;28;19916;-74
2022/09/18 02:39:53;;;;;;;;;;;11.60;99.90;;;;;;5102345;28;20358;-74
2022/09/18 02:42:19;;;;;;;;;;;11.60;99.90;;;;;;5100856;28;19919;-74
2022/09/18 02:44:53;;;;;;;;;;;11.60;99.90;;;;;;5115107;27;19908;-74
2022/09/18 02:47:38;;;;;;;;;;;11.60;99.90;;;;;;5100150;27;19912;-74
2022/09/18 02:50:06;;;;;;;;;;;11.50;99.90;;;;;;5093121;28;19908;-74
2022/09/18 02:52:34;;;;;;;;;;;11.50;99.90;;;;;;5089278;28;19914;-75
2022/09/18 02:55:09;;;;;;;;;;;11.50;99.90;;;;;;5102408;28;19915;-74
2022/09/18 02:57:37;;;;;;;;;;;11.50;99.90;;;;;;5081273;28;19928;-73
2022/09/18 03:00:04;;;;;;;;;;;11.50;99.90;;;;;;5097512;28;19993;-77
2022/09/18 03:02:29;;;;;;;;;;;11.50;99.90;;;;;;5096388;28;20360;-77
2022/09/18 03:04:55;;;;;;;;;;;11.60;99.90;;;;;;5114009;28;19911;-72
2022/09/18 03:07:20;;;;;;;;;;;11.60;99.90;;;;;;5102237;28;19967;-73
2022/09/18 03:09:46;;;;;;;;;;;11.70;99.90;;;;;;5082275;28;19915;-73
2022/09/18 03:12:11;;;;;;;;;;;11.70;99.90;;;;;;5100450;28;19920;-73
2022/09/18 03:14:37;;;;;;;;;;;11.70;99.90;;;;;;5099287;28;20294;-76
2022/09/18 03:17:03;;;;;;;;;;;11.70;99.90;;;;;;5082045;28;19985;-73
2022/09/18 03:19:28;;;;;;;;;;;11.60;99.90;;;;;;5099115;28;19928;-73
2022/09/18 03:21:54;;;;;;;;;;;11.60;99.90;;;;;;5082142;28;19923;-74
2022/09/18 03:24:20;;;;;;;;;;;11.60;99.90;;;;;;5101024;28;20009;-75
2022/09/18 03:26:45;;;;;;;;;;;11.50;99.90;;;;;;5098806;28;19939;-75
2022/09/18 03:29:12;;;;;;;;;;;11.50;99.90;;;;;;5084681;28;19915;-74
2022/09/18 03:31:37;;;;;;;;;;;11.50;99.90;;;;;;5104643;28;19923;-74
2022/09/18 03:34:03;;;;;;;;;;;11.50;99.90;;;;;;5088988;28;19912;-73
2022/09/18 03:36:29;;;;;;;;;;;11.40;99.90;;;;;;5101654;28;19920;-74
2022/09/18 03:38:54;;;;;;;;;;;11.40;99.90;;;;;;5086067;28;19954;-73
2022/09/18 03:41:21;;;;;;;;;;;11.30;99.90;;;;;;5103700;28;19916;-74
2022/09/18 03:43:47;;;;;;;;;;;11.30;99.90;;;;;;5084810;28;19912;-71
2022/09/18 03:46:12;;;;;;;;;;;11.40;99.90;;;;;;5084741;28;19916;-75
2022/09/18 03:48:38;;;;;;;;;;;11.40;99.90;;;;;;5102844;28;19915;-77
2022/09/18 03:51:04;;;;;;;;;;;11.50;99.90;;;;;;5104835;28;19923;-79
2022/09/18 03:53:29;;;;;;;;;;;11.60;99.90;;;;;;5104136;28;19912;-88
2022/09/18 03:55:55;;;;;;;;;;;11.50;99.90;;;;;;5082623;28;19912;-82
2022/09/18 03:58:20;;;;;;;;;;;11.60;99.90;;;;;;5106082;28;19920;-77
2022/09/18 04:00:46;;;;;;;;;;;11.50;99.90;;;;;;5104503;28;19927;-77
2022/09/18 04:03:11;;;;;;;;;;;11.50;99.90;;;;;;5102446;28;19927;-74
2022/09/18 04:05:37;;;;;;;;;;;11.50;99.90;;;;;;5084164;28;19916;-75
2022/09/18 04:08:04;;;;;;;;;;;11.60;99.90;;;;;;5084395;28;19930;-75
2022/09/18 04:10:30;;;;;;;;;;;11.60;99.90;;;;;;5086178;28;19927;-75
2022/09/18 04:12:56;;;;;;;;;;;11.50;99.90;;;;;;5090460;28;19920;-77
2022/09/18 04:15:21;;;;;;;;;;;11.60;99.90;;;;;;5101883;28;19923;-74
2022/09/18 04:17:47;;;;;;;;;;;11.50;99.90;;;;;;5100109;28;19954;-74
2022/09/18 04:20:13;;;;;;;;;;;11.50;99.90;;;;;;5099893;28;20018;-75
2022/09/18 04:22:38;;;;;;;;;;;11.40;99.90;;;;;;5102483;28;19920;-75
2022/09/18 04:25:04;;;;;;;;;;;11.40;99.90;;;;;;5102804;28;20401;-75
2022/09/18 04:27:30;;;;;;;;;;;11.30;99.90;;;;;;5103601;28;19911;-75
2022/09/18 04:29:55;;;;;;;;;;;11.30;99.90;;;;;;5102383;28;19916;-74
2022/09/18 04:32:21;;;;;;;;;;;11.30;99.90;;;;;;5103108;28;19920;-75
2022/09/18 04:34:46;;;;;;;;;;;11.30;99.90;;;;;;5082826;28;19961;-74
2022/09/18 04:37:12;;;;;;;;;;;11.30;99.90;;;;;;5103039;28;19916;-74
2022/09/18 04:39:38;;;;;;;;;;;11.30;99.90;;;;;;5100237;28;19919;-76
2022/09/18 04:42:04;;;;;;;;;;;11.30;99.90;;;;;;5101060;28;20196;-78
2022/09/18 04:44:29;;;;;;;;;;;11.30;99.90;;;;;;5103047;28;20210;-73
2022/09/18 04:46:55;;;;;;;;;;;11.30;99.90;;;;;;5100240;28;19912;-78
2022/09/18 04:49:20;;;;;;;;;;;11.40;99.90;;;;;;5085831;28;19920;-75
2022/09/18 04:51:46;;;;;;;;;;;11.40;99.90;;;;;;5103166;28;19968;-76
2022/09/18 04:54:11;;;;;;;;;;;11.40;99.90;;;;;;5102745;28;19916;-76
2022/09/18 04:56:37;;;;;;;;;;;11.40;99.90;;;;;;5101976;28;20419;-77
2022/09/18 04:59:02;;;;;;;;;;;11.40;99.90;;;;;;5102214;28;19912;-76
2022/09/18 05:01:28;;;;;;;;;;;11.40;99.90;;;;;;5085187;28;19959;-74
2022/09/18 05:03:54;;;;;;;;;;;11.40;99.90;;;;;;5077686;28;19965;-78
2022/09/18 05:06:19;;;;;;;;;;;11.30;99.90;;;;;;5103989;27;19918;-78
2022/09/18 05:08:45;;;;;;;;;;;11.30;99.90;;;;;;5090032;28;19912;-78
2022/09/18 05:11:11;;;;;;;;;;;11.30;99.90;;;;;;5093290;28;19916;-77
2022/09/18 05:13:38;;;;;;;;;;;11.30;99.90;;;;;;5085124;28;19964;-74
2022/09/18 05:16:03;;;;;;;;;;;11.40;99.90;;;;;;5105316;28;19916;-76
2022/09/18 05:18:29;;;;;;;;;;;11.40;99.90;;;;;;5105386;28;19919;-75
2022/09/18 05:20:55;;;;;;;;;;;11.40;99.90;;;;;;5111421;28;20369;-77
2022/09/18 05:23:20;;;;;;;;;;;11.40;99.90;;;;;;5106506;28;20267;-75
2022/09/18 05:25:46;;;;;;;;;;;11.40;99.90;;;;;;5106953;28;19940;-75
2022/09/18 05:28:14;;;;;;;;;;;11.50;99.90;;;;;;5097913;28;19940;-78
2022/09/18 05:30:39;;;;;;;;;;;11.50;99.90;;;;;;5088771;28;20348;-76
2022/09/18 05:33:06;;;;;;;;;;;11.40;99.90;;;;;;5085260;28;19916;-77
2022/09/18 05:35:32;;;;;;;;;;;11.40;99.90;;;;;;5092025;28;19919;-75
2022/09/18 05:37:58;;;;;;;;;;;11.30;99.90;;;;;;5091583;28;19908;-75
2022/09/18 05:40:25;;;;;;;;;;;11.30;99.90;;;;;;5093268;28;20270;-75
2022/09/18 05:42:54;;;;;;;;;;;11.30;99.90;;;;;;5104719;28;19924;-74
2022/09/18 05:45:20;;;;;;;;;;;11.30;99.90;;;;;;5106892;28;19964;-74
2022/09/18 05:48:02;;;;;;;;;;;11.20;99.90;;;;;;5104765;28;19920;-74
2022/09/18 05:50:28;;;;;;;;;;;11.20;99.90;;;;;;5105751;28;20390;-74
2022/09/18 05:52:56;;;;;;;;;;;11.20;99.90;;;;;;5108417;28;19915;-74
2022/09/18 05:55:22;;;;;;;;;;;11.20;99.90;;;;;;5106099;28;20412;-76
2022/09/18 05:57:50;;;;;;;;;;;11.30;99.90;;;;;;5091316;28;19911;-74
2022/09/18 06:00:16;;;;;;;;;;;11.30;99.90;;;;;;5105695;28;19963;-74
2022/09/18 06:02:41;;;;;;;;;;;11.30;99.90;;;;;;5100947;28;19920;-74
2022/09/18 06:05:09;;;;;;;;;;;11.40;99.90;;;;;;5105303;28;20290;-74
2022/09/18 06:07:34;;;;;;;;;;;11.40;99.90;;;;;;5087665;28;19915;-76
2022/09/18 06:10:02;;;;;;;;;;;11.40;99.90;;;;;;5077630;28;19916;-74
2022/09/18 06:12:27;;;;;;;;;;;11.50;99.90;;;;;;5106692;28;19982;-75
2022/09/18 06:14:53;;;;;;;;;;;11.50;99.90;;;;;;5097749;27;20033;-74
2022/09/18 06:17:19;;;;;;;;;;;11.50;99.90;;;;;;5103450;28;20251;-73
2022/09/18 06:19:44;;;;;;;;;;;11.60;99.90;;;;;;5099181;28;19920;-73
2022/09/18 06:22:10;;;;;;;;;;;11.60;99.90;;;;;;5107143;28;20275;-74
2022/09/18 06:24:36;;;;;;;;;;;11.60;99.90;;;;;;5101992;28;19920;-73
2022/09/18 06:27:01;;;;;;;;;;;11.60;99.90;;;;;;5106239;28;19916;-73
2022/09/18 06:29:27;;;;;;;;;;;11.60;99.90;;;;;;5088158;28;19912;-75
2022/09/18 06:31:52;;;;;;;;;;;11.70;99.90;;;;;;5082258;28;19912;-73
2022/09/18 06:34:18;;;;;;;;;;;11.70;99.90;;;;;;5095869;28;19919;-72
2022/09/18 06:36:43;;;;;;;;;;;11.70;99.90;;;;;;5106108;28;19911;-73
2022/09/18 06:39:09;;;;;;;;;;;11.70;99.90;;;;;;5098421;28;20550;-74
2022/09/18 06:41:34;;;;;;;;;;;11.70;99.90;;;;;;5080087;28;19916;-74
2022/09/18 06:44:00;;;;;;;;;;;11.80;99.90;;;;;;5080582;28;19916;-74
2022/09/18 06:46:26;;;;;;;;;;;11.80;99.90;;;;;;5085093;28;19927;-74
2022/09/18 06:48:51;;;;;;;;;;;11.90;99.90;;;;;;5088334;28;19912;-74
2022/09/18 06:51:17;;;;;;;;;;;11.90;99.90;;;;;;5088677;28;20006;-74
2022/09/18 06:53:42;;;;;;;;;;;12.00;99.90;;;;;;5097674;28;19950;-73
2022/09/18 06:56:08;;;;;;;;;;;12.00;99.90;;;;;;5107471;28;20214;-73
2022/09/18 06:58:33;;;;;;;;;;;12.10;99.90;;;;;;5108868;28;19962;-75
2022/09/18 07:00:59;;;;;;;;;;;12.10;99.90;;;;;;5108378;28;20011;-74
2022/09/18 07:03:25;;;;;;;;;;;12.20;99.90;;;;;;5103629;28;19916;-73
2022/09/18 07:05:50;;;;;;;;;;;12.40;99.90;;;;;;5113370;27;20006;-73
2022/09/18 07:08:16;;;;;;;;;;;12.30;99.90;;;;;;5082546;28;19916;-73
2022/09/18 07:10:41;;;;;;;;;;;12.30;99.90;;;;;;5115001;27;19980;-76
2022/09/18 07:13:07;;;;;;;;;;;12.40;99.90;;;;;;5098890;28;19942;-77
2022/09/18 07:15:32;;;;;;;;;;;12.30;99.90;;;;;;5107715;28;19920;-75
2022/09/18 07:17:59;;;;;;;;;;;12.30;99.90;;;;;;5091674;28;19918;-74
2022/09/18 07:20:25;;;;;;;;;;;12.30;99.90;;;;;;5084825;28;19963;-74
2022/09/18 07:22:52;;;;;;;;;;;12.30;99.90;;;;;;5103646;28;19963;-74
2022/09/18 07:25:18;;;;;;;;;;;12.30;99.90;;;;;;5101038;28;19916;-74
2022/09/18 07:27:43;;;;;;;;;;;12.30;99.90;;;;;;5105959;28;19920;-80
2022/09/18 07:30:09;;;;;;;;;;;12.30;99.90;;;;;;5101968;28;20050;-74
2022/09/18 07:32:35;;;;;;;;;;;12.30;99.90;;;;;;5104935;28;19958;-75
2022/09/18 07:35:00;;;;;;;;;;;12.40;99.90;;;;;;5074264;28;20046;-78
2022/09/18 07:37:26;;;;;;;;;;;12.40;99.90;;;;;;5105044;28;19926;-74
2022/09/18 07:39:52;;;;;;;;;;;12.40;99.90;;;;;;5082766;28;19931;-74
2022/09/18 07:42:17;;;;;;;;;;;12.40;99.90;;;;;;5101740;28;19943;-74
2022/09/18 07:44:43;;;;;;;;;;;12.40;99.90;;;;;;5103392;28;19912;-75
2022/09/18 07:47:08;;;;;;;;;;;12.40;99.90;;;;;;5085561;28;19916;-74
2022/09/18 07:49:36;;;;;;;;;;;12.40;99.90;;;;;;5101808;28;20291;-74
2022/09/18 07:52:01;;;;;;;;;;;12.40;99.90;;;;;;5101803;28;19927;-75
2022/09/18 07:54:27;;;;;;;;;;;12.40;99.90;;;;;;5104173;28;19924;-76
2022/09/18 07:56:53;;;;;;;;;;;12.50;99.90;;;;;;5083882;28;19973;-78
2022/09/18 07:59:18;;;;;;;;;;;12.50;99.90;;;;;;5103447;27;19916;-75
2022/09/18 08:01:44;;;;;;;;;;;12.50;99.90;;;;;;5086872;28;19916;-76
2022/09/18 08:04:09;;;;;;;;;;;12.40;99.90;;;;;;5085774;28;19988;-76
2022/09/18 08:06:35;;;;;;;;;;;12.40;99.90;;;;;;5101692;28;19912;-75
2022/09/18 08:09:00;;;;;;;;;;;12.30;99.90;;;;;;5104499;28;19962;-78
2022/09/18 08:11:26;;;;;;;;;;;12.30;99.90;;;;;;5081465;28;19923;-76
2022/09/18 08:13:52;;;;;;;;;;;12.40;99.90;;;;;;5102682;28;19915;-75
2022/09/18 08:16:17;;;;;;;;;;;12.40;99.90;;;;;;5102292;28;19922;-74
2022/09/18 08:18:43;;;;;;;;;;;12.40;99.90;;;;;;5102854;28;19918;-75
2022/09/18 08:21:08;;;;;;;;;;;12.50;99.90;;;;;;5086420;28;20315;-77
2022/09/18 08:23:34;;;;;;;;;;;12.40;99.90;;;;;;5109604;27;20203;-73
2022/09/18 08:26:03;;;;;;;;;;;12.50;99.90;;;;;;5084918;28;20325;-74
2022/09/18 08:28:28;;;;;;;;;;;12.50;99.90;;;;;;5110463;28;19912;-74
2022/09/18 08:30:54;;;;;;;;;;;12.60;99.90;;;;;;5095460;28;19919;-73
2022/09/18 08:33:19;;;;;;;;;;;12.60;99.90;;;;;;5102224;28;19914;-74
2022/09/18 08:35:45;;;;;;;;;;;12.70;99.90;;;;;;5097413;28;19955;-73
2022/09/18 08:38:10;;;;;;;;;;;12.70;99.90;;;;;;5086782;28;19916;-76
2022/09/18 08:40:51;;;;;;;;;;;12.70;99.90;;;;;;5103220;28;19923;-74
2022/09/18 08:43:26;;;;;;;;;;;12.70;99.90;;;;;;5092475;28;20012;-74
2022/09/18 08:46:01;;;;;;;;;;;12.60;99.90;;;;;;5096046;28;19916;-74
2022/09/18 08:48:30;;;;;;;;;;;12.40;99.90;;;;;;5108203;28;19969;-76
2022/09/18 08:50:59;;;;;;;;;;;12.40;99.90;;;;;;5096375;28;19908;-75
2022/09/18 08:53:30;;;;;;;;;;;12.40;99.90;;;;;;5099658;28;19923;-74
2022/09/18 08:55:57;;;;;;;;;;;12.20;99.90;;;;;;5084519;28;19912;-77
2022/09/18 08:58:46;;;;;;;;;;;12.30;99.90;;;;;;5104423;28;19948;-74
2022/09/18 09:01:14;;;;;;;;;;;12.30;99.90;;;;;;5095225;28;20392;-74
2022/09/18 09:03:43;;;;;;;;;;;12.40;99.90;;;;;;5102510;28;19922;-74
2022/09/18 09:06:23;;;;;;;;;;;12.50;99.90;;;;;;5101526;28;19942;-75
2022/09/18 09:09:01;;;;;;;;;;;12.60;99.90;;;;;;5081528;28;19916;-74
2022/09/18 09:11:45;;;;;;;;;;;12.70;99.90;;;;;;5100463;28;20244;-74
2022/09/18 09:14:11;;;;;;;;;;;12.70;99.90;;;;;;5107750;28;20334;-73
2022/09/18 09:16:37;;;;;;;;;;;12.80;99.90;;;;;;5086084;28;19916;-75
2022/09/18 09:19:26;;;;;;;;;;;12.80;99.90;;;;;;5097086;28;19939;-74
2022/09/18 09:22:07;;;;;;;;;;;12.80;99.90;;;;;;5089198;28;19982;-77
2022/09/18 09:24:35;;;;;;;;;;;12.80;99.90;;;;;;5095737;28;19912;-73
2022/09/18 09:27:07;;;;;;;;;;;12.70;99.90;;;;;;5081838;28;20378;-77
2022/09/18 09:29:36;;;;;;;;;;;12.70;99.90;;;;;;5086646;28;19912;-73
2022/09/18 09:32:06;;;;;;;;;;;12.70;99.90;;;;;;5104566;28;19953;-76
2022/09/18 09:34:39;;;;;;;;;;;12.70;99.90;;;;;;5097363;28;19956;-77
2022/09/18 09:37:09;;;;;;;;;;;12.70;99.90;;;;;;5099754;28;19919;-73
2022/09/18 09:39:38;;;;;;;;;;;12.80;99.90;;;;;;5081003;28;19916;-75
2022/09/18 09:42:13;;;;;;;;;;;12.90;99.90;;;;;;5086568;28;20302;-75
2022/09/18 09:44:48;;;;;;;;;;;12.90;99.90;;;;;;5100555;28;19908;-73
2022/09/18 09:47:32;;;;;;;;;;;13.10;99.90;;;;;;5105697;28;20311;-74
2022/09/18 09:50:08;;;;;;;;;;;13.00;99.90;;;;;;5076854;28;19916;-74
2022/09/18 09:52:38;;;;;;;;;;;13.00;99.90;;;;;;5096691;28;19920;-76
2022/09/18 09:55:13;;;;;;;;;;;13.00;99.90;;;;;;5085570;28;19999;-74
2022/09/18 09:57:59;;;;;;;;;;;13.00;99.90;;;;;;5108268;28;19911;-76
2022/09/18 10:00:25;;;;;;;;;;;13.20;99.90;;;;;;5074438;28;19915;-74
2022/09/18 10:03:00;;;;;;;;;;;13.10;99.90;;;;;;5087383;28;20218;-76
2022/09/18 10:05:26;;;;;;;;;;;13.10;99.90;;;;;;5076597;28;19912;-75
2022/09/18 10:07:54;;;;;;;;;;;13.20;99.90;;;;;;5078319;28;20008;-74
2022/09/18 10:10:20;;;;;;;;;;;13.20;99.90;;;;;;5107422;28;19965;-72
2022/09/18 10:13:03;;;;;;;;;;;13.20;99.90;;;;;;5076803;28;19915;-73
2022/09/18 10:15:35;;;;;;;;;;;13.30;99.90;;;;;;5099232;28;20259;-71
2022/09/18 10:18:02;;;;;;;;;;;13.30;99.90;;;;;;5101461;28;19998;-73
2022/09/18 10:20:30;;;;;;;;;;;13.20;99.90;;;;;;5108767;27;19919;-73
2022/09/18 10:23:05;;;;;;;;;;;13.10;99.90;;;;;;5103257;27;19957;-74
2022/09/18 10:25:51;;;;;;;;;;;13.10;99.90;;;;;;5095779;27;19924;-74
2022/09/18 10:28:17;;;;;;;;;;;12.90;99.90;;;;;;5109215;27;20370;-73
2022/09/18 10:31:01;;;;;;;;;;;12.70;99.90;;;;;;5089357;28;19919;-73
2022/09/18 10:33:42;;;;;;;;;;;12.60;99.90;;;;;;5093890;28;19916;-74
2022/09/18 10:36:22;;;;;;;;;;;12.60;99.90;;;;;;5100918;28;20223;-74
2022/09/18 10:38:48;;;;;;;;;;;12.60;99.90;;;;;;5096923;28;19916;-73
2022/09/18 10:41:16;;;;;;;;;;;12.70;99.90;;;;;;5077822;28;19985;-74
2022/09/18 10:43:53;;;;;;;;;;;12.70;99.90;;;;;;5078925;28;19916;-75
2022/09/18 10:46:22;;;;;;;;;;;12.70;99.90;;;;;;5106104;28;20231;-73
2022/09/18 10:48:47;;;;;;;;;;;12.70;99.90;;;;;;5102893;28;19923;-74
2022/09/18 10:51:16;;;;;;;;;;;12.60;99.90;;;;;;5105470;28;19919;-76
2022/09/18 10:53:42;;;;;;;;;;;12.70;99.90;;;;;;5104511;28;19911;-73
2022/09/18 10:56:18;;;;;;;;;;;12.70;99.90;;;;;;5097712;28;20331;-73
2022/09/18 10:58:44;;;;;;;;;;;12.70;99.90;;;;;;5083059;28;19966;-74
2022/09/18 11:01:11;;;;;;;;;;;12.70;99.90;;;;;;5099630;28;19916;-74
2022/09/18 11:03:41;;;;;;;;;;;12.60;99.90;;;;;;5083013;28;20278;-73
2022/09/18 11:06:18;;;;;;;;;;;12.60;99.90;;;;;;5087111;28;19914;-74
2022/09/18 11:08:47;;;;;;;;;;;12.60;99.90;;;;;;5098153;28;19991;-73
2022/09/18 11:11:19;;;;;;;;;;;12.70;99.90;;;;;;5099129;28;20303;-74
2022/09/18 11:13:55;;;;;;;;;;;12.60;99.90;;;;;;5096673;28;20299;-73
2022/09/18 11:16:21;;;;;;;;;;;12.60;99.90;;;;;;5091040;28;19915;-77
2022/09/18 11:18:58;;;;;;;;;;;12.60;99.90;;;;;;5104488;28;19994;-73
2022/09/18 11:21:24;;;;;;;;;;;12.60;99.90;;;;;;5093684;28;19920;-77
2022/09/18 11:24:00;;;;;;;;;;;12.60;99.90;;;;;;5094492;28;19920;-75
2022/09/18 11:26:29;;;;;;;;;;;12.40;99.90;;;;;;5075925;28;20214;-76
2022/09/18 11:28:58;;;;;;;;;;;12.50;99.90;;;;;;5088263;28;19957;-75
2022/09/18 11:31:24;;;;;;;;;;;12.50;99.90;;;;;;5103213;28;19953;-74
2022/09/18 11:33:54;;;;;;;;;;;12.40;99.90;;;;;;5106726;28;19912;-74
2022/09/18 11:36:27;;;;;;;;;;;12.50;99.90;;;;;;5102420;28;20249;-76
2022/09/18 11:38:52;;;;;;;;;;;12.40;99.90;;;;;;5085462;28;19916;-77
2022/09/18 11:41:23;;;;;;;;;;;12.30;99.90;;;;;;5104900;28;19991;-74
2022/09/18 11:44:03;;;;;;;;;;;12.40;99.90;;;;;;5087365;28;19912;-75
2022/09/18 11:46:37;;;;;;;;;;;12.40;99.90;;;;;;5093465;28;19947;-74
2022/09/18 11:49:08;;;;;;;;;;;12.50;99.90;;;;;;5103910;27;20201;-74
2022/09/18 11:51:43;;;;;;;;;;;12.60;99.90;;;;;;5078315;28;19920;-75
2022/09/18 11:54:14;;;;;;;;;;;12.70;99.90;;;;;;5098283;28;19965;-76
2022/09/18 11:56:43;;;;;;;;;;;12.70;99.90;;;;;;5108345;28;20337;-72
2022/09/18 11:59:13;;;;;;;;;;;12.70;99.90;;;;;;5103904;28;20362;-75
2022/09/18 12:01:48;;;;;;;;;;;12.80;99.90;;;;;;5086897;28;19916;-73
2022/09/18 12:04:14;;;;;;;;;;;12.80;99.90;;;;;;5099714;28;20210;-73
2022/09/18 12:06:45;;;;;;;;;;;12.90;99.90;;;;;;5099814;28;20006;-74
2022/09/18 12:09:11;;;;;;;;;;;12.90;99.90;;;;;;5092357;28;19915;-73
2022/09/18 12:11:41;;;;;;;;;;;12.90;99.90;;;;;;5086149;28;20042;-74
2022/09/18 12:14:20;;;;;;;;;;;12.90;99.90;;;;;;5088861;28;20775;-76
2022/09/18 12:17:02;;;;;;;;;;;12.80;99.90;;;;;;5110556;27;19909;-74
2022/09/18 12:19:27;;;;;;;;;;;12.70;99.90;;;;;;5084671;28;19920;-77
2022/09/18 12:21:53;;;;;;;;;;;12.60;99.90;;;;;;5075186;28;20221;-80
2022/09/18 12:24:19;;;;;;;;;;;12.50;99.90;;;;;;5088108;28;19916;-76
2022/09/18 12:26:44;;;;;;;;;;;12.50;99.90;;;;;;5079169;28;19908;-76
2022/09/18 12:29:16;;;;;;;;;;;12.50;99.90;;;;;;5076417;28;19915;-76
2022/09/18 12:32:00;;;;;;;;;;;12.50;99.90;;;;;;5073795;28;19932;-75
2022/09/18 12:34:29;;;;;;;;;;;12.50;99.90;;;;;;5076980;28;19917;-79
2022/09/18 12:37:01;;;;;;;;;;;12.50;99.90;;;;;;5080741;28;19915;-76
2022/09/18 12:39:30;;;;;;;;;;;12.50;99.90;;;;;;5081544;28;19948;-76
2022/09/18 12:42:08;;;;;;;;;;;12.50;99.90;;;;;;5090976;28;19923;-74
2022/09/18 12:44:51;;;;;;;;;;;12.50;99.90;;;;;;5082916;28;20378;-74
2022/09/18 12:47:17;;;;;;;;;;;12.50;99.90;;;;;;5075163;28;19912;-75
2022/09/18 12:49:42;;;;;;;;;;;12.50;99.90;;;;;;5077781;28;19939;-74
2022/09/18 12:52:25;;;;;;;;;;;12.40;99.90;;;;;;5087651;28;20378;-74
2022/09/18 12:55:01;;;;;;;;;;;12.40;99.90;;;;;;5084646;28;20231;-75
2022/09/18 12:57:46;;;;;;;;;;;12.30;99.90;;;;;;5086472;28;20529;-75
2022/09/18 13:00:12;;;;;;;;;;;12.40;99.90;;;;;;5080964;28;19917;-77
2022/09/18 13:02:37;;;;;;;;;;;12.30;99.90;;;;;;5080854;28;19912;-75
2022/09/18 13:05:03;;;;;;;;;;;12.40;99.90;;;;;;5078932;28;19924;-75
2022/09/18 13:07:34;;;;;;;;;;;12.40;99.90;;;;;;5081871;28;20003;-76
2022/09/18 13:10:05;;;;;;;;;;;12.30;99.90;;;;;;5072923;28;19943;-77
2022/09/18 13:12:46;;;;;;;;;;;12.20;99.90;;;;;;5080263;28;19923;-78
2022/09/18 13:15:30;;;;;;;;;;;12.20;99.90;;;;;;5080204;28;19923;-78
2022/09/18 13:18:22;;;;;;;;;;;12.20;99.90;;;;;;5085956;28;20517;-74
2022/09/18 13:20:48;;;;;;;;;;;12.20;99.90;;;;;;5094231;28;19931;-75
2022/09/18 13:23:19;;;;;;;;;;;12.20;99.90;;;;;;5076470;28;20040;-75
2022/09/18 13:25:46;;;;;;;;;;;12.30;99.90;;;;;;5081310;28;19927;-74
2022/09/18 13:28:14;;;;;;;;;;;12.40;99.90;;;;;;5091916;28;19920;-74
2022/09/18 13:30:39;;;;;;;;;;;12.30;99.90;;;;;;5078745;28;20318;-75
2022/09/18 13:33:20;;;;;;;;;;;12.30;99.90;;;;;;5085355;28;19917;-75
2022/09/18 13:35:47;;;;;;;;;;;12.10;99.90;;;;;;5083470;28;19913;-74
2022/09/18 13:38:15;;;;;;;;;;;12.00;99.90;;;;;;5081767;28;19923;-76
2022/09/18 13:40:41;;;;;;;;;;;11.90;99.90;;;;;;5086005;28;20000;-74
2022/09/18 13:43:25;;;;;;;;;;;11.80;99.90;;;;;;5086514;28;20273;-74
2022/09/18 13:45:51;;;;;;;;;;;11.80;99.90;;;;;;5073718;28;19916;-74
2022/09/18 13:48:29;;;;;;;;;;;11.70;99.90;;;;;;5077706;28;20342;-74
2022/09/18 13:50:59;;;;;;;;;;;11.60;99.90;;;;;;5075557;28;19917;-74
2022/09/18 13:53:29;;;;;;;;;;;11.70;99.90;;;;;;5081458;28;20061;-74
2022/09/18 13:55:55;;;;;;;;;;;11.70;99.90;;;;;;5074699;28;19916;-74
2022/09/18 13:58:29;;;;;;;;;;;11.70;99.90;;;;;;5073813;28;20592;-74
2022/09/18 14:00:56;;;;;;;;;;;11.70;99.90;;;;;;5078783;28;19968;-75
2022/09/18 14:03:24;;;;;;;;;;;11.80;99.90;;;;;;5074062;28;19938;-74
2022/09/18 14:05:50;;;;;;;;;;;11.80;99.90;;;;;;5076448;28;19913;-74
2022/09/18 14:08:20;;;;;;;;;;;11.80;99.90;;;;;;5084040;28;19923;-74
2022/09/18 14:10:45;;;;;;;;;;;11.80;99.90;;;;;;5077184;28;19924;-72
2022/09/18 14:13:31;;;;;;;;;;;11.80;99.90;;;;;;5077966;28;19912;-74
2022/09/18 14:16:03;;;;;;;;;;;11.80;99.90;;;;;;5076584;28;20311;-75
2022/09/18 14:18:30;;;;;;;;;;;11.70;99.90;;;;;;5076031;28;19920;-74
2022/09/18 14:21:14;;;;;;;;;;;11.70;99.90;;;;;;5079843;28;19935;-75
2022/09/18 14:23:45;;;;;;;;;;;11.70;99.90;;;;;;5076163;28;19925;-77
2022/09/18 14:26:34;;;;;;;;;;;11.70;99.90;;;;;;5074918;28;19974;-74